Fort Liard, Northwest Territories

3:51 PM MDT on April 26, 2017 (GMT -0600)
Fort Liard | | Change Station

Elev 699 ft 60.23 °N, 123.47 °W | Updated 51 minutes ago

Partly Cloudy
Partly Cloudy
55 °F
Feels Like 55 °F
N
6
Wind Variable Wind from NNE

Today
High -- | Low -- °F
--% Chance of Precip.
Yesterday
High -- | Low -- °F
Precip. -- in
Pressure 29.62 in
Visibility 15.0 miles
Clouds Scattered Clouds 11000 ft
Scattered Clouds 24000 ft
Dew Point 21 °F
Humidity 26%
Rainfall 0.00 in
Snow Depth Not available.
6:23 AM 10:01 PM
New Moon, 0% visible
METAR CYJF 262100Z 03005KT 15SM SCT110 SCT240 13/M06 A2959 RMK AC3CI1 SLP028 DENSITY ALT 1000FT
Pressure 29.62 in
Visibility 15.0 miles
Clouds Scattered Clouds 11000 ft
Scattered Clouds 24000 ft
Dew Point 21 °F
Humidity 26%
Rainfall 0.00 in
Snow Depth Not available.
6:23 AM 10:01 PM
New Moon, 0% visible
METAR CYJF 262100Z 03005KT 15SM SCT110 SCT240 13/M06 A2959 RMK AC3CI1 SLP028 DENSITY ALT 1000FT

Get Severe Weather Alerts

Thanks for signing up!

Be on the lookout for a verification email in your inbox.

You'll start receiving the daily forecast at 8 AM.

×

10-Day Weather Forecast

Almanac

Astronomy

Apr. 26, 2017 Rise Set
Actual Time
Civil Twilight
Nautical Twilight
Astronomical Twilight
Moon
Length of Visible Light
Length of Day
Tomorrow will be .
, % of the Moon is Illuminated

Today's Extremes

Country Highs Country Lows

Community

WunderPhotos

WunderBlog® & News

Nearby

Air Quality

  Air Quality AQ Index Pollutant
Not available.

Snow Depth

Station Depth Elevation

Earthquake Activity

City Distance Mag. Time & Date
Minimum magnitude displayed is 2.5.

Coastal Water Temperatures

Place Temperature

Stations

Nearby Weather Stations

Station Location Temp. Windchill Dew Point Humidity Wind Precip. Elev Updated Type
                   

Watches & Warnings

There are currently no watches in effect.